createdAt,value
2019-02-27T00:00:04.536Z,1035
2019-02-27T00:01:03.074Z,1035
2019-02-27T00:02:03.082Z,1035.1
2019-02-27T00:03:03.144Z,1035
2019-02-27T00:04:03.203Z,1035
2019-02-27T00:05:03.246Z,1035
2019-02-27T00:06:03.314Z,1035
2019-02-27T00:07:03.324Z,1035.1
2019-02-27T00:08:03.440Z,1035.1
2019-02-27T00:09:03.505Z,1035
2019-02-27T00:10:05.817Z,1035.1
2019-02-27T00:11:06.020Z,1035
2019-02-27T00:12:03.603Z,1035.1
2019-02-27T00:13:03.614Z,1035
2019-02-27T00:14:03.651Z,1035
2019-02-27T00:15:04.894Z,1035
2019-02-27T00:16:03.734Z,1035.1
2019-02-27T00:17:03.708Z,1035
2019-02-27T00:18:03.757Z,1035.1
2019-02-27T00:19:03.801Z,1035
2019-02-27T00:20:04.943Z,1035
2019-02-27T00:21:04.307Z,1035
2019-02-27T00:22:03.883Z,1035.1
2019-02-27T00:23:03.917Z,1035
2019-02-27T00:24:03.929Z,1035
2019-02-27T00:25:04.130Z,1034.9
2019-02-27T00:26:04.090Z,1034.9
2019-02-27T00:27:04.038Z,1034.9
2019-02-27T00:28:04.057Z,1035
2019-02-27T00:29:04.072Z,1034.9
2019-02-27T00:30:05.679Z,1034.9
2019-02-27T00:31:04.155Z,1034.9
2019-02-27T00:32:04.178Z,1034.9
2019-02-27T00:33:04.239Z,1034.9
2019-02-27T00:34:04.229Z,1034.9
2019-02-27T00:35:06.685Z,1034.9
2019-02-27T00:36:04.274Z,1034.8
2019-02-27T00:37:04.322Z,1034.7
2019-02-27T00:38:04.338Z,1034.8
2019-02-27T00:39:04.397Z,1034.8
2019-02-27T00:40:05.586Z,1034.8
2019-02-27T00:41:04.417Z,1034.8
2019-02-27T00:42:04.428Z,1034.9
2019-02-27T00:43:04.484Z,1034.9
2019-02-27T00:44:04.477Z,1034.9
2019-02-27T00:45:06.758Z,1034.9
2019-02-27T00:46:04.531Z,1034.9
2019-02-27T00:47:04.542Z,1034.9
2019-02-27T00:48:04.554Z,1034.8
2019-02-27T00:49:04.541Z,1034.7
2019-02-27T00:50:06.489Z,1034.8
2019-02-27T00:51:04.581Z,1034.8
2019-02-27T00:52:04.613Z,1034.8
2019-02-27T00:53:04.647Z,1034.8
2019-02-27T00:54:04.625Z,1034.8
2019-02-27T00:55:05.267Z,1034.8
2019-02-27T00:56:04.652Z,1034.8
2019-02-27T00:57:04.692Z,1034.8
2019-02-27T00:58:04.713Z,1034.6
2019-02-27T00:59:04.701Z,1034.8
2019-02-27T01:00:06.475Z,1034.7
2019-02-27T01:01:04.712Z,1034.6
2019-02-27T01:02:04.727Z,1034.7
2019-02-27T01:03:04.846Z,1034.6
2019-02-27T01:04:04.735Z,1034.7
2019-02-27T01:05:06.151Z,1034.6
2019-02-27T01:06:05.036Z,1034.6
2019-02-27T01:07:04.745Z,1034.6
2019-02-27T01:08:04.921Z,1034.7
2019-02-27T01:09:06.346Z,1034.7
2019-02-27T01:10:04.906Z,1034.6
2019-02-27T01:11:04.928Z,1034.6
2019-02-27T01:12:05.050Z,1034.5
2019-02-27T01:13:05.080Z,1034.7
2019-02-27T01:14:05.178Z,1034.6
2019-02-27T01:15:05.194Z,1034.7
2019-02-27T01:16:05.175Z,1034.5
2019-02-27T01:17:05.286Z,1034.5
2019-02-27T01:18:05.345Z,1034.5
2019-02-27T01:19:05.476Z,1034.5
2019-02-27T01:20:05.464Z,1034.6
2019-02-27T01:21:05.530Z,1034.5
2019-02-27T01:22:05.537Z,1034.6
2019-02-27T01:23:05.600Z,1034.5
2019-02-27T01:24:05.623Z,1034.5
2019-02-27T01:25:05.680Z,1034.5
2019-02-27T01:26:05.736Z,1034.5
2019-02-27T01:27:05.748Z,1034.5
2019-02-27T01:28:05.807Z,1034.5
2019-02-27T01:29:05.854Z,1034.4
2019-02-27T01:30:05.893Z,1034.4
2019-02-27T01:31:05.972Z,1034.4
2019-02-27T01:32:06.015Z,1034.5
2019-02-27T01:33:06.010Z,1034.4
2019-02-27T01:34:06.040Z,1034.5
2019-02-27T01:35:06.098Z,1034.5
2019-02-27T01:36:06.172Z,1034.5
2019-02-27T01:37:06.240Z,1034.5
2019-02-27T01:38:06.270Z,1034.5
2019-02-27T01:39:06.314Z,1034.4
2019-02-27T01:40:06.387Z,1034.3
2019-02-27T01:41:06.405Z,1034.4
2019-02-27T01:42:06.486Z,1034.3
2019-02-27T01:43:06.565Z,1034.4
2019-02-27T01:44:06.565Z,1034.4
2019-02-27T01:45:06.681Z,1034.4
2019-02-27T01:46:06.588Z,1034.4
2019-02-27T01:47:06.616Z,1034.3
2019-02-27T01:48:08.866Z,1034.3
2019-02-27T01:49:06.696Z,1034.3
2019-02-27T01:50:06.790Z,1034.3
2019-02-27T01:51:06.735Z,1034.3
2019-02-27T01:52:06.775Z,1034.2
2019-02-27T01:53:07.307Z,1034.2
2019-02-27T01:54:06.882Z,1034.2
2019-02-27T01:55:06.944Z,1034.2
2019-02-27T01:56:06.919Z,1034.1
2019-02-27T01:57:07.002Z,1034.1
2019-02-27T01:58:09.494Z,1034.1
2019-02-27T01:59:07.044Z,1034.2
2019-02-27T02:00:07.133Z,1034.1
2019-02-27T02:01:07.152Z,1034.1
2019-02-27T02:02:07.240Z,1034
2019-02-27T02:03:07.263Z,1034
2019-02-27T02:04:07.256Z,1034.1
2019-02-27T02:05:07.338Z,1034.1
2019-02-27T02:06:07.360Z,1034.1
2019-02-27T02:07:07.517Z,1034.1
2019-02-27T02:08:07.391Z,1034.1
2019-02-27T02:09:07.433Z,1034
2019-02-27T02:10:07.519Z,1034.1
2019-02-27T02:11:07.516Z,1034.1
2019-02-27T02:12:08.615Z,1034.1
2019-02-27T02:13:07.554Z,1034.1
2019-02-27T02:14:07.588Z,1034
2019-02-27T02:15:07.603Z,1034
2019-02-27T02:16:07.646Z,1034.1
2019-02-27T02:17:08.042Z,1034.1
2019-02-27T02:18:07.673Z,1034.1
2019-02-27T02:19:07.701Z,1034.1
2019-02-27T02:20:07.703Z,1034
2019-02-27T02:21:07.815Z,1034.1
2019-02-27T02:22:08.837Z,1034.1
2019-02-27T02:23:07.792Z,1034
2019-02-27T02:24:07.792Z,1034.1
2019-02-27T02:25:07.845Z,1034
2019-02-27T02:26:07.843Z,1034
2019-02-27T02:27:08.733Z,1034
2019-02-27T02:28:07.907Z,1034
2019-02-27T02:29:07.903Z,1034.1
2019-02-27T02:30:07.904Z,1034
2019-02-27T02:31:07.917Z,1034
2019-02-27T02:32:07.980Z,1034
2019-02-27T02:33:07.969Z,1034
2019-02-27T02:34:08.110Z,1034
2019-02-27T02:35:08.026Z,1034
2019-02-27T02:36:08.021Z,1033.9
2019-02-27T02:37:08.055Z,1034
2019-02-27T02:38:11.782Z,1034
2019-02-27T02:39:08.062Z,1034
2019-02-27T02:40:08.067Z,1034
2019-02-27T02:41:09.251Z,1034
2019-02-27T02:42:08.078Z,1034
2019-02-27T02:43:08.100Z,1033.9
2019-02-27T02:44:08.121Z,1034
2019-02-27T02:45:08.113Z,1033.9
2019-02-27T02:46:09.549Z,1033.9
2019-02-27T02:47:08.099Z,1034
2019-02-27T02:48:08.140Z,1033.9
2019-02-27T02:49:08.571Z,1033.9
2019-02-27T02:50:08.137Z,1033.9
2019-02-27T02:51:08.211Z,1033.8
2019-02-27T02:52:08.263Z,1033.9
2019-02-27T02:53:08.332Z,1033.9
2019-02-27T02:54:08.416Z,1033.8
2019-02-27T02:55:11.857Z,1033.9
2019-02-27T02:56:08.477Z,1033.9
2019-02-27T02:57:08.579Z,1033.8
2019-02-27T02:58:11.240Z,1033.8
2019-02-27T02:59:08.688Z,1033.9
2019-02-27T03:00:08.688Z,1033.8
2019-02-27T03:01:13.872Z,1033.8
2019-02-27T03:02:08.839Z,1033.7
2019-02-27T03:03:08.928Z,1033.8
2019-02-27T03:04:12.438Z,1033.7
2019-02-27T03:05:08.990Z,1033.7
2019-02-27T03:06:09.000Z,1033.7
2019-02-27T03:07:10.793Z,1033.8
2019-02-27T03:08:09.105Z,1033.7
2019-02-27T03:09:09.228Z,1033.7
2019-02-27T03:10:09.208Z,1033.7
2019-02-27T03:11:09.262Z,1033.7
2019-02-27T03:12:09.378Z,1033.7
2019-02-27T03:13:09.386Z,1033.6
2019-02-27T03:14:09.373Z,1033.6
2019-02-27T03:15:09.431Z,1033.5
2019-02-27T03:16:09.472Z,1033.7
2019-02-27T03:17:09.527Z,1033.6
2019-02-27T03:18:09.547Z,1033.6
2019-02-27T03:19:09.629Z,1033.6
2019-02-27T03:20:09.638Z,1033.6
2019-02-27T03:21:09.689Z,1033.5
2019-02-27T03:22:09.776Z,1033.5
2019-02-27T03:23:15.268Z,1033.6
2019-02-27T03:24:09.816Z,1033.4
2019-02-27T03:25:09.883Z,1033.5
2019-02-27T03:26:09.941Z,1033.5
2019-02-27T03:27:09.970Z,1033.5
2019-02-27T03:28:09.983Z,1033.5
2019-02-27T03:29:15.491Z,1033.5
2019-02-27T03:30:10.213Z,1033.4
2019-02-27T03:31:15.597Z,1033.5
2019-02-27T03:32:10.155Z,1033.5
2019-02-27T03:33:10.668Z,1033.5
2019-02-27T03:34:10.332Z,1033.5
2019-02-27T03:35:10.309Z,1033.4
2019-02-27T03:36:10.274Z,1033.5
2019-02-27T03:37:13.067Z,1033.5
2019-02-27T03:38:10.391Z,1033.5
2019-02-27T03:39:10.394Z,1033.4
2019-02-27T03:40:11.730Z,1033.4
2019-02-27T03:41:10.469Z,1033.5
2019-02-27T03:42:10.517Z,1033.5
2019-02-27T03:43:11.451Z,1033.5
2019-02-27T03:44:10.571Z,1033.5
2019-02-27T03:45:10.595Z,1033.4
2019-02-27T03:46:10.695Z,1033.4
2019-02-27T03:47:15.390Z,1033.5
2019-02-27T03:48:10.658Z,1033.4
2019-02-27T03:49:10.715Z,1033.4
2019-02-27T03:50:14.532Z,1033.3
2019-02-27T03:51:10.759Z,1033.3
2019-02-27T03:52:10.782Z,1033.3
2019-02-27T03:53:11.680Z,1033.4
2019-02-27T03:54:10.841Z,1033.4
2019-02-27T03:55:10.904Z,1033.4
2019-02-27T03:56:10.934Z,1033.4
2019-02-27T03:57:10.944Z,1033.4
2019-02-27T03:58:10.946Z,1033.4
2019-02-27T03:59:11.010Z,1033.4
2019-02-27T04:00:11.030Z,1033.3
2019-02-27T04:01:11.062Z,1033.3
2019-02-27T04:02:11.074Z,1033.4
2019-02-27T04:03:16.900Z,1033.4
2019-02-27T04:04:11.133Z,1033.3
2019-02-27T04:05:11.171Z,1033.3
2019-02-27T04:06:11.179Z,1033.4
2019-02-27T04:07:11.185Z,1033.4
2019-02-27T04:08:11.250Z,1033.3
2019-02-27T04:09:11.207Z,1033.3
2019-02-27T04:10:11.221Z,1033.3
2019-02-27T04:11:11.238Z,1033.3
2019-02-27T04:12:15.992Z,1033.3
2019-02-27T04:13:11.250Z,1033.3
2019-02-27T04:14:11.386Z,1033.3
2019-02-27T04:15:11.303Z,1033.3
2019-02-27T04:16:11.299Z,1033.4
2019-02-27T04:17:11.317Z,1033.3
2019-02-27T04:18:11.355Z,1033.3
2019-02-27T04:19:11.354Z,1033.3
2019-02-27T04:20:14.506Z,1033.3
2019-02-27T04:21:11.404Z,1033.3
2019-02-27T04:22:11.408Z,1033.2
2019-02-27T04:23:12.690Z,1033.3
2019-02-27T04:24:11.410Z,1033.2
2019-02-27T04:25:11.428Z,1033.2
2019-02-27T04:26:11.468Z,1033.3
2019-02-27T04:27:11.436Z,1033.3
2019-02-27T04:28:11.459Z,1033.3
2019-02-27T04:29:11.459Z,1033.3
2019-02-27T04:30:14.658Z,1033.3
2019-02-27T04:31:11.501Z,1033.4
2019-02-27T04:32:12.386Z,1033.3
2019-02-27T04:33:11.503Z,1033.3
2019-02-27T04:34:11.575Z,1033.3
2019-02-27T04:35:11.599Z,1033.3
2019-02-27T04:36:12.656Z,1033.3
2019-02-27T04:37:11.636Z,1033.4
2019-02-27T04:38:11.687Z,1033.5
2019-02-27T04:39:11.721Z,1033.3
2019-02-27T04:40:11.819Z,1033.5
2019-02-27T04:41:11.857Z,1033.4
2019-02-27T04:42:11.953Z,1033.4
2019-02-27T04:43:12.009Z,1033.5
2019-02-27T04:44:12.075Z,1033.5
2019-02-27T04:45:12.870Z,1033.5
2019-02-27T04:46:12.265Z,1033.6
2019-02-27T04:47:12.264Z,1033.5
2019-02-27T04:48:12.322Z,1033.5
2019-02-27T04:49:12.371Z,1033.5
2019-02-27T04:50:12.382Z,1033.5
2019-02-27T04:51:16.843Z,1033.5
2019-02-27T04:52:12.428Z,1033.5
2019-02-27T04:53:12.452Z,1033.5
2019-02-27T04:54:28.202Z,1033.5
2019-02-27T04:55:13.036Z,1033.4
2019-02-27T04:56:12.565Z,1033.5
2019-02-27T04:57:12.597Z,1033.5
2019-02-27T04:58:12.585Z,1033.6
2019-02-27T04:59:12.612Z,1033.5
2019-02-27T05:00:12.672Z,1033.4
2019-02-27T05:01:12.667Z,1033.5
2019-02-27T05:02:14.537Z,1033.5
2019-02-27T05:03:12.770Z,1033.6
2019-02-27T05:04:12.834Z,1033.5
2019-02-27T05:05:12.879Z,1033.5
2019-02-27T05:06:14.381Z,1033.6
2019-02-27T05:07:12.905Z,1033.5
2019-02-27T05:08:12.969Z,1033.5
2019-02-27T05:09:12.998Z,1033.5
2019-02-27T05:10:13.133Z,1033.5
2019-02-27T05:11:14.148Z,1033.4
2019-02-27T05:12:13.100Z,1033.5
2019-02-27T05:13:13.169Z,1033.6
2019-02-27T05:14:13.204Z,1033.5
2019-02-27T05:15:13.235Z,1033.5
2019-02-27T05:16:14.099Z,1033.5
2019-02-27T05:17:13.344Z,1033.5
2019-02-27T05:18:13.393Z,1033.5
2019-02-27T05:19:15.190Z,1033.5
2019-02-27T05:20:13.467Z,1033.4
2019-02-27T05:21:13.562Z,1033.5
2019-02-27T05:22:13.574Z,1033.5
2019-02-27T05:23:13.695Z,1033.5
2019-02-27T05:24:13.658Z,1033.5
2019-02-27T05:25:14.405Z,1033.5
2019-02-27T05:26:13.782Z,1033.5
2019-02-27T05:27:13.743Z,1033.5
2019-02-27T05:28:13.795Z,1033.5
2019-02-27T05:29:15.696Z,1033.5
2019-02-27T05:30:13.865Z,1033.5
2019-02-27T05:31:18.034Z,1033.4
2019-02-27T05:32:13.967Z,1033.5
2019-02-27T05:33:13.961Z,1033.5
2019-02-27T05:34:13.976Z,1033.5
2019-02-27T05:35:14.021Z,1033.5
2019-02-27T05:36:14.028Z,1033.6
2019-02-27T05:37:14.055Z,1033.6
2019-02-27T05:38:14.144Z,1033.6
2019-02-27T05:39:14.885Z,1033.6
2019-02-27T05:40:14.105Z,1033.6
2019-02-27T05:41:14.126Z,1033.5
2019-02-27T05:42:14.136Z,1033.5
2019-02-27T05:43:14.155Z,1033.6
2019-02-27T05:44:14.177Z,1033.5
2019-02-27T05:45:14.211Z,1033.5
2019-02-27T05:46:15.100Z,1033.5
2019-02-27T05:47:14.263Z,1033.6
2019-02-27T05:48:19.601Z,1033.7
2019-02-27T05:49:14.280Z,1033.5
2019-02-27T05:50:14.331Z,1033.6
2019-02-27T05:51:14.360Z,1033.6
2019-02-27T05:52:15.053Z,1033.6
2019-02-27T05:53:14.421Z,1033.6
2019-02-27T05:54:14.423Z,1033.6
2019-02-27T05:55:14.436Z,1033.6
2019-02-27T05:56:16.221Z,1033.6
2019-02-27T05:57:14.441Z,1033.7
2019-02-27T05:58:14.468Z,1033.7
2019-02-27T05:59:14.486Z,1033.6
2019-02-27T06:00:14.499Z,1033.7
2019-02-27T06:01:14.660Z,1033.6
2019-02-27T06:02:14.519Z,1033.6
2019-02-27T06:03:15.849Z,1033.6
2019-02-27T06:04:14.510Z,1033.6
2019-02-27T06:05:14.555Z,1033.7
2019-02-27T06:06:14.573Z,1033.6
2019-02-27T06:07:18.601Z,1033.6
2019-02-27T06:08:14.594Z,1033.7
2019-02-27T06:09:14.606Z,1033.6
2019-02-27T06:10:17.489Z,1033.6
2019-02-27T06:11:14.586Z,1033.5
2019-02-27T06:12:14.633Z,1033.6
2019-02-27T06:13:14.735Z,1033.5
2019-02-27T06:14:14.622Z,1033.6
2019-02-27T06:15:14.710Z,1033.6
2019-02-27T06:16:14.609Z,1033.5
2019-02-27T06:17:14.627Z,1033.5
2019-02-27T06:18:14.692Z,1033.5
2019-02-27T06:19:14.635Z,1033.5
2019-02-27T06:20:14.698Z,1033.5
2019-02-27T06:21:16.350Z,1033.6
2019-02-27T06:22:14.844Z,1033.5
2019-02-27T06:23:14.915Z,1033.5
2019-02-27T06:24:15.052Z,1033.6
2019-02-27T06:25:21.461Z,1033.5
2019-02-27T06:26:15.113Z,1033.5
2019-02-27T06:27:15.089Z,1033.5
2019-02-27T06:28:18.417Z,1033.4
2019-02-27T06:29:15.201Z,1033.4
2019-02-27T06:30:15.272Z,1033.4
2019-02-27T06:31:15.302Z,1033.3
2019-02-27T06:32:15.411Z,1033.3
2019-02-27T06:33:15.568Z,1033.3
2019-02-27T06:34:15.488Z,1033.3
2019-02-27T06:35:15.546Z,1033.2
2019-02-27T06:36:15.589Z,1033.3
2019-02-27T06:37:16.092Z,1033.2
2019-02-27T06:38:15.677Z,1033.2
2019-02-27T06:39:15.725Z,1033.3
2019-02-27T06:40:17.916Z,1033.3
2019-02-27T06:41:16.283Z,1033.2
2019-02-27T06:42:15.926Z,1033.2
2019-02-27T06:43:15.875Z,1033.2
2019-02-27T06:44:15.909Z,1033.2
2019-02-27T06:45:15.941Z,1033.1
2019-02-27T06:46:17.286Z,1033.2
2019-02-27T06:47:16.091Z,1033.1
2019-02-27T06:48:16.140Z,1033.1
2019-02-27T06:49:18.180Z,1033.1
2019-02-27T06:50:16.239Z,1033.1
2019-02-27T06:51:16.217Z,1033.1
2019-02-27T06:52:16.430Z,1033.1
2019-02-27T06:53:16.570Z,1033.1
2019-02-27T06:54:18.324Z,1033
2019-02-27T06:55:16.445Z,1033.1
2019-02-27T06:56:16.473Z,1033
2019-02-27T06:57:16.489Z,1033.1
2019-02-27T06:58:16.488Z,1033
2019-02-27T06:59:18.042Z,1033
2019-02-27T07:00:16.659Z,1033.1
2019-02-27T07:01:16.655Z,1033
2019-02-27T07:02:19.063Z,1033.1
2019-02-27T07:03:16.735Z,1033
2019-02-27T07:04:16.818Z,1032.9
2019-02-27T07:05:16.789Z,1033
2019-02-27T07:06:21.234Z,1033
2019-02-27T07:07:16.959Z,1033
2019-02-27T07:08:16.915Z,1033
2019-02-27T07:09:16.927Z,1033
2019-02-27T07:10:19.831Z,1032.9
2019-02-27T07:11:16.979Z,1032.9
2019-02-27T07:12:21.565Z,1032.9
2019-02-27T07:13:17.032Z,1032.9
2019-02-27T07:14:17.080Z,1032.8
2019-02-27T07:15:17.105Z,1032.8
2019-02-27T07:16:17.158Z,1032.8
2019-02-27T07:17:17.235Z,1032.9
2019-02-27T07:18:17.225Z,1032.7
2019-02-27T07:19:17.277Z,1032.8
2019-02-27T07:20:17.308Z,1032.7
2019-02-27T07:21:17.351Z,1032.8
2019-02-27T07:22:17.370Z,1032.7
2019-02-27T07:23:22.592Z,1032.7
2019-02-27T07:24:17.459Z,1032.6
2019-02-27T07:25:17.463Z,1032.7
2019-02-27T07:26:17.460Z,1032.7
2019-02-27T07:27:17.544Z,1032.7
2019-02-27T07:28:17.555Z,1032.6
2019-02-27T07:29:21.513Z,1032.7
2019-02-27T07:30:17.638Z,1032.6
2019-02-27T07:31:18.445Z,1032.7
2019-02-27T07:32:17.653Z,1032.6
2019-02-27T07:33:17.704Z,1032.5
2019-02-27T07:34:17.796Z,1032.6
2019-02-27T07:35:17.741Z,1032.6
2019-02-27T07:36:17.757Z,1032.5
2019-02-27T07:37:17.755Z,1032.4
2019-02-27T07:38:21.330Z,1032.5
2019-02-27T07:39:17.806Z,1032.5
2019-02-27T07:40:17.821Z,1032.4
2019-02-27T07:41:20.676Z,1032.5
2019-02-27T07:42:17.867Z,1032.5
2019-02-27T07:43:17.885Z,1032.4
2019-02-27T07:44:17.904Z,1032.5
2019-02-27T07:45:17.991Z,1032.4
2019-02-27T07:46:22.124Z,1032.4
2019-02-27T07:47:17.902Z,1032.4
2019-02-27T07:48:17.957Z,1032.4
2019-02-27T07:49:17.926Z,1032.3
2019-02-27T07:50:17.967Z,1032.4
2019-02-27T07:51:17.961Z,1032.3
2019-02-27T07:52:17.939Z,1032.2
2019-02-27T07:53:18.315Z,1032.3
2019-02-27T07:54:17.974Z,1032.3
2019-02-27T07:55:21.770Z,1032.2
2019-02-27T07:56:17.992Z,1032.2
2019-02-27T07:57:17.982Z,1032.2
2019-02-27T07:58:17.976Z,1032.2
2019-02-27T07:59:18.601Z,1032.2
2019-02-27T08:00:18.140Z,1032.2
2019-02-27T08:01:18.129Z,1032.2
2019-02-27T08:02:18.146Z,1032.1
2019-02-27T08:03:18.298Z,1032.1
2019-02-27T08:04:19.226Z,1032.1
2019-02-27T08:05:20.653Z,1032.1
2019-02-27T08:06:18.465Z,1032.1
2019-02-27T08:07:18.465Z,1032
2019-02-27T08:08:23.192Z,1032
2019-02-27T08:09:18.566Z,1032
2019-02-27T08:10:18.593Z,1031.9
2019-02-27T08:11:18.634Z,1032
2019-02-27T08:12:19.878Z,1031.9
2019-02-27T08:13:18.772Z,1031.9
2019-02-27T08:14:18.770Z,1031.9
2019-02-27T08:15:18.803Z,1031.9
2019-02-27T08:16:18.865Z,1031.9
2019-02-27T08:17:18.967Z,1031.8
2019-02-27T08:18:27.163Z,1031.8
2019-02-27T08:19:19.009Z,1031.8
2019-02-27T08:20:20.945Z,1031.7
2019-02-27T08:21:19.110Z,1031.8
2019-02-27T08:22:19.163Z,1031.7
2019-02-27T08:23:19.234Z,1031.7
2019-02-27T08:24:19.263Z,1031.7
2019-02-27T08:25:19.329Z,1031.6
2019-02-27T08:26:19.376Z,1031.6
2019-02-27T08:27:19.391Z,1031.6
2019-02-27T08:28:19.405Z,1031.6
2019-02-27T08:29:19.436Z,1031.6
2019-02-27T08:30:19.495Z,1031.6
2019-02-27T08:31:19.543Z,1031.5
2019-02-27T08:32:19.579Z,1031.5
2019-02-27T08:33:19.686Z,1031.5
2019-02-27T08:34:19.709Z,1031.5
2019-02-27T08:35:19.674Z,1031.5
2019-02-27T08:36:19.745Z,1031.5
2019-02-27T08:37:20.317Z,1031.5
2019-02-27T08:38:19.868Z,1031.4
2019-02-27T08:39:19.900Z,1031.5
2019-02-27T08:40:23.997Z,1031.4
2019-02-27T08:41:19.974Z,1031.3
2019-02-27T08:42:20.129Z,1031.3
2019-02-27T08:43:20.079Z,1031.3
2019-02-27T08:44:20.194Z,1031.2
2019-02-27T08:45:20.645Z,1031.3
2019-02-27T08:46:20.194Z,1031.3
2019-02-27T08:47:20.241Z,1031.2
2019-02-27T08:48:20.295Z,1031.2
2019-02-27T08:49:23.915Z,1031.2
2019-02-27T08:50:20.377Z,1031.2
2019-02-27T08:51:20.392Z,1031.1
2019-02-27T08:52:20.435Z,1031.1
2019-02-27T08:53:25.803Z,1031.1
2019-02-27T08:54:20.483Z,1031.1
2019-02-27T08:55:22.418Z,1031
2019-02-27T08:56:20.553Z,1030.9
2019-02-27T08:57:20.614Z,1031
2019-02-27T08:58:20.639Z,1031
2019-02-27T08:59:20.684Z,1030.9
2019-02-27T09:00:22.990Z,1030.8
2019-02-27T09:01:21.657Z,1030.9
2019-02-27T09:02:20.759Z,1030.8
2019-02-27T09:03:20.874Z,1030.8
2019-02-27T09:04:20.755Z,1030.8
2019-02-27T09:05:20.925Z,1030.7
2019-02-27T09:06:20.819Z,1030.7
2019-02-27T09:07:20.825Z,1030.8
2019-02-27T09:08:20.884Z,1030.7
2019-02-27T09:09:20.905Z,1030.6
2019-02-27T09:10:23.105Z,1030.7
2019-02-27T09:11:20.948Z,1030.7
2019-02-27T09:12:20.956Z,1030.6
2019-02-27T09:13:21.024Z,1030.7
2019-02-27T09:14:21.020Z,1030.6
2019-02-27T09:15:21.194Z,1030.6
2019-02-27T09:16:22.978Z,1030.6
2019-02-27T09:17:21.067Z,1030.5
2019-02-27T09:18:22.882Z,1030.4
2019-02-27T09:19:21.154Z,1030.4
2019-02-27T09:20:21.140Z,1030.4
2019-02-27T09:21:21.233Z,1030.5
2019-02-27T09:22:21.147Z,1030.5
2019-02-27T09:23:21.183Z,1030.4
2019-02-27T09:24:21.199Z,1030.4
2019-02-27T09:25:24.471Z,1030.4
2019-02-27T09:26:21.210Z,1030.3
2019-02-27T09:27:21.223Z,1030.3
2019-02-27T09:28:21.229Z,1030.3
2019-02-27T09:29:21.225Z,1030.2
2019-02-27T09:30:21.236Z,1030.1
2019-02-27T09:31:21.232Z,1030.2
2019-02-27T09:32:21.297Z,1030.2
2019-02-27T09:33:21.266Z,1030.2
2019-02-27T09:34:21.325Z,1030.2
2019-02-27T09:35:21.262Z,1030.2
2019-02-27T09:36:23.711Z,1030.3
2019-02-27T09:37:21.311Z,1030.2
2019-02-27T09:38:24.022Z,1030.2
2019-02-27T09:39:22.140Z,1030.3
2019-02-27T09:40:21.470Z,1030.1
2019-02-27T09:41:21.535Z,1030.2
2019-02-27T09:42:21.610Z,1030.3
2019-02-27T09:43:24.049Z,1030.2
2019-02-27T09:44:21.649Z,1030.1
2019-02-27T09:45:21.745Z,1030.1
2019-02-27T09:46:21.906Z,1030.1
2019-02-27T09:47:23.120Z,1030
2019-02-27T09:48:21.903Z,1030
2019-02-27T09:49:21.915Z,1030
2019-02-27T09:50:22.043Z,1030
2019-02-27T09:51:22.157Z,1030
2019-02-27T09:52:23.699Z,1029.9
2019-02-27T09:53:22.122Z,1030
2019-02-27T09:54:22.141Z,1029.9
2019-02-27T09:55:22.210Z,1029.9
2019-02-27T09:56:22.262Z,1029.9
2019-02-27T09:57:22.329Z,1029.8
2019-02-27T09:58:22.726Z,1030
2019-02-27T09:59:22.484Z,1029.8
2019-02-27T10:00:25.796Z,1029.8
2019-02-27T10:01:22.558Z,1029.8
2019-02-27T10:02:22.582Z,1029.8
2019-02-27T10:03:22.742Z,1029.8
2019-02-27T10:04:22.667Z,1029.8
2019-02-27T10:05:22.683Z,1029.7
2019-02-27T10:06:22.816Z,1029.7
2019-02-27T10:07:22.795Z,1029.7
2019-02-27T10:08:25.181Z,1029.7
2019-02-27T10:09:22.903Z,1029.7
2019-02-27T10:10:22.930Z,1029.6
2019-02-27T10:11:23.014Z,1029.7
2019-02-27T10:12:26.834Z,1029.7
2019-02-27T10:13:23.134Z,1029.7
2019-02-27T10:14:23.204Z,1029.6
2019-02-27T10:15:25.118Z,1029.6
2019-02-27T10:16:23.307Z,1029.6
2019-02-27T10:17:23.354Z,1029.6
2019-02-27T10:18:23.366Z,1029.6
2019-02-27T10:19:23.398Z,1029.5
2019-02-27T10:20:23.469Z,1029.7
2019-02-27T10:21:23.510Z,1029.6
2019-02-27T10:22:24.620Z,1029.6
2019-02-27T10:23:23.495Z,1029.6
2019-02-27T10:24:23.509Z,1029.6
2019-02-27T10:25:23.633Z,1029.6
2019-02-27T10:26:23.636Z,1029.6
2019-02-27T10:27:25.451Z,1029.6
2019-02-27T10:28:23.679Z,1029.6
2019-02-27T10:29:23.740Z,1029.6
2019-02-27T10:30:23.760Z,1029.6
2019-02-27T10:31:25.875Z,1029.5
2019-02-27T10:32:23.853Z,1029.6
2019-02-27T10:33:25.728Z,1029.5
2019-02-27T10:34:23.942Z,1029.5
2019-02-27T10:35:23.947Z,1029.5
2019-02-27T10:36:24.033Z,1029.4
2019-02-27T10:37:24.173Z,1029.4
2019-02-27T10:38:26.075Z,1029.5
2019-02-27T10:39:24.106Z,1029.5
2019-02-27T10:40:24.110Z,1029.4
2019-02-27T10:41:24.118Z,1029.4
2019-02-27T10:42:24.176Z,1029.3
2019-02-27T10:43:24.216Z,1029.3
2019-02-27T10:44:24.273Z,1029.3
2019-02-27T10:45:24.243Z,1029.2
2019-02-27T10:46:24.335Z,1029.3
2019-02-27T10:47:24.302Z,1029.2
2019-02-27T10:48:24.347Z,1029.2
2019-02-27T10:49:24.335Z,1029.2
2019-02-27T10:50:24.409Z,1029.2
2019-02-27T10:51:24.385Z,1029.2
2019-02-27T10:52:25.034Z,1029.2
2019-02-27T10:53:26.781Z,1029.1
2019-02-27T10:54:24.447Z,1029.2
2019-02-27T10:55:24.451Z,1029.1
2019-02-27T10:56:24.870Z,1029.2
2019-02-27T10:57:24.491Z,1029.1
2019-02-27T10:58:24.705Z,1029.1
2019-02-27T10:59:24.538Z,1029.1
2019-02-27T11:00:25.063Z,1029
2019-02-27T11:01:24.588Z,1029
2019-02-27T11:02:24.600Z,1029.1
2019-02-27T11:03:27.008Z,1029
2019-02-27T11:04:24.646Z,1029
2019-02-27T11:05:24.643Z,1029
2019-02-27T11:06:33.401Z,1029
2019-02-27T11:07:24.675Z,1028.9
2019-02-27T11:08:28.568Z,1029
2019-02-27T11:09:24.695Z,1028.9
2019-02-27T11:10:24.755Z,1028.9
2019-02-27T11:11:24.729Z,1028.8
2019-02-27T11:12:26.806Z,1028.8
2019-02-27T11:13:24.756Z,1028.8
2019-02-27T11:14:24.766Z,1028.9
2019-02-27T11:15:24.767Z,1028.9
2019-02-27T11:16:24.762Z,1028.8
2019-02-27T11:17:24.750Z,1028.9
2019-02-27T11:18:24.794Z,1028.8
2019-02-27T11:19:24.797Z,1028.8
2019-02-27T11:20:24.899Z,1028.7
2019-02-27T11:21:24.909Z,1028.7
2019-02-27T11:22:24.943Z,1028.7
2019-02-27T11:23:24.988Z,1028.7
2019-02-27T11:24:25.081Z,1028.6
2019-02-27T11:25:25.130Z,1028.7
2019-02-27T11:26:25.243Z,1028.6
2019-02-27T11:27:25.344Z,1028.6
2019-02-27T11:28:25.259Z,1028.6
2019-02-27T11:29:25.317Z,1028.6
2019-02-27T11:30:25.385Z,1028.6
2019-02-27T11:31:25.426Z,1028.6
2019-02-27T11:32:25.493Z,1028.5
2019-02-27T11:33:26.499Z,1028.5
2019-02-27T11:34:25.566Z,1028.5
2019-02-27T11:35:26.012Z,1028.5
2019-02-27T11:36:25.597Z,1028.4
2019-02-27T11:37:25.686Z,1028.3
2019-02-27T11:38:25.860Z,1028.4
2019-02-27T11:39:25.854Z,1028.4
2019-02-27T11:40:25.881Z,1028.4
2019-02-27T11:41:25.904Z,1028.3
2019-02-27T11:42:25.930Z,1028.4
2019-02-27T11:43:25.947Z,1028.3
2019-02-27T11:44:26.259Z,1028.2
2019-02-27T11:45:26.413Z,1028.2
2019-02-27T11:46:26.074Z,1028.3
2019-02-27T11:47:26.094Z,1028.2
2019-02-27T11:48:26.147Z,1028.2
2019-02-27T11:49:26.182Z,1028.2
2019-02-27T11:50:26.193Z,1028.1
2019-02-27T11:51:27.852Z,1028.1
2019-02-27T11:52:28.589Z,1028.2
2019-02-27T11:53:26.435Z,1028.1
2019-02-27T11:54:26.374Z,1028
2019-02-27T11:55:26.530Z,1028
2019-02-27T11:56:26.491Z,1028
2019-02-27T11:57:27.268Z,1028
2019-02-27T11:58:26.567Z,1027.9
2019-02-27T11:59:26.562Z,1027.9
2019-02-27T12:00:26.689Z,1028
2019-02-27T12:01:26.651Z,1027.9
2019-02-27T12:02:29.127Z,1028
2019-02-27T12:03:26.744Z,1027.9
2019-02-27T12:04:26.771Z,1027.9
2019-02-27T12:05:30.115Z,1027.9
2019-02-27T12:06:26.861Z,1027.9
2019-02-27T12:07:26.897Z,1027.9
2019-02-27T12:08:26.939Z,1027.8
2019-02-27T12:09:27.000Z,1027.9
2019-02-27T12:10:27.039Z,1027.8
2019-02-27T12:11:27.075Z,1027.8
2019-02-27T12:12:27.096Z,1027.7
2019-02-27T12:13:27.148Z,1027.8
2019-02-27T12:14:27.203Z,1027.8
2019-02-27T12:15:27.427Z,1027.8
2019-02-27T12:16:27.237Z,1027.8
2019-02-27T12:17:27.296Z,1027.7
2019-02-27T12:18:27.384Z,1027.7
2019-02-27T12:19:27.337Z,1027.6
2019-02-27T12:20:27.371Z,1027.7
2019-02-27T12:21:27.424Z,1027.6
2019-02-27T12:22:27.425Z,1027.6
2019-02-27T12:23:27.440Z,1027.6
2019-02-27T12:24:27.578Z,1027.6
2019-02-27T12:25:29.917Z,1027.5
2019-02-27T12:26:27.617Z,1027.4
2019-02-27T12:27:47.698Z,1027.4
2019-02-27T12:28:27.588Z,1027.4
2019-02-27T12:29:27.614Z,1027.5
2019-02-27T12:30:27.720Z,1027.4
2019-02-27T12:31:27.668Z,1027.4
2019-02-27T12:32:27.647Z,1027.5
2019-02-27T12:33:29.351Z,1027.3